createdAt,value
2018-08-22T00:01:46.279Z,0.77
2018-08-22T00:04:16.136Z,0.60
2018-08-22T00:06:44.626Z,0.50
2018-08-22T00:09:13.396Z,0.60
2018-08-22T00:11:42.693Z,0.60
2018-08-22T00:14:11.306Z,0.63
2018-08-22T00:16:40.767Z,0.63
2018-08-22T00:19:09.180Z,0.63
2018-08-22T00:21:38.191Z,0.50
2018-08-22T00:24:06.604Z,0.70
2018-08-22T00:26:35.113Z,0.80
2018-08-22T00:29:03.693Z,0.83
2018-08-22T00:31:32.153Z,0.70
2018-08-22T00:34:00.711Z,0.60
2018-08-22T00:36:29.126Z,0.43
2018-08-22T00:38:57.660Z,0.77
2018-08-22T00:41:26.244Z,0.70
2018-08-22T00:43:54.938Z,0.40
2018-08-22T00:46:24.436Z,0.50
2018-08-22T00:48:53.077Z,0.70
2018-08-22T00:51:21.693Z,0.63
2018-08-22T00:53:50.152Z,0.70
2018-08-22T00:56:18.739Z,0.67
2018-08-22T00:58:47.287Z,0.70
2018-08-22T01:01:15.734Z,0.80
2018-08-22T01:03:44.240Z,0.50
2018-08-22T01:06:12.733Z,0.77
2018-08-22T01:08:41.301Z,0.60
2018-08-22T01:11:09.812Z,0.60
2018-08-22T01:13:38.441Z,0.60
2018-08-22T01:16:06.884Z,0.60
2018-08-22T01:18:35.537Z,0.53
2018-08-22T01:21:04.094Z,0.70
2018-08-22T01:23:32.549Z,0.53
2018-08-22T01:26:01.101Z,0.60
2018-08-22T01:28:29.559Z,0.80
2018-08-22T01:30:58.165Z,0.50
2018-08-22T01:33:26.624Z,0.67
2018-08-22T01:35:55.843Z,0.70
2018-08-22T01:38:24.923Z,0.70
2018-08-22T01:40:53.406Z,0.60
2018-08-22T01:43:21.900Z,0.60
2018-08-22T01:45:50.533Z,0.50
2018-08-22T01:48:19.069Z,0.60
2018-08-22T01:50:47.860Z,0.63
2018-08-22T01:53:16.265Z,0.63
2018-08-22T01:55:44.696Z,0.50
2018-08-22T01:58:13.143Z,0.70
2018-08-22T02:00:41.649Z,0.57
2018-08-22T02:03:10.096Z,0.70
2018-08-22T02:05:38.902Z,0.60
2018-08-22T02:08:07.349Z,0.50
2018-08-22T02:10:35.936Z,0.63
2018-08-22T02:13:04.305Z,0.60
2018-08-22T02:15:32.740Z,0.60
2018-08-22T02:18:01.245Z,0.60
2018-08-22T02:20:29.752Z,0.77
2018-08-22T02:22:58.197Z,0.70
2018-08-22T02:25:26.634Z,0.40
2018-08-22T02:27:55.090Z,0.80
2018-08-22T02:30:24.179Z,0.40
2018-08-22T02:32:52.583Z,0.73
2018-08-22T02:35:20.965Z,0.70
2018-08-22T02:37:49.436Z,0.50
2018-08-22T02:40:17.963Z,0.60
2018-08-22T02:42:46.418Z,0.73
2018-08-22T02:45:14.929Z,0.53
2018-08-22T02:47:43.413Z,0.77
2018-08-22T02:50:11.881Z,0.90
2018-08-22T02:52:40.460Z,0.60
2018-08-22T02:55:09.153Z,0.50
2018-08-22T02:57:39.912Z,0.77
2018-08-22T03:00:08.444Z,0.60
2018-08-22T03:02:37.075Z,0.70
2018-08-22T03:05:05.555Z,0.50
2018-08-22T03:07:35.395Z,0.50
2018-08-22T03:10:07.096Z,0.50
2018-08-22T03:12:35.741Z,0.50
2018-08-22T03:15:04.247Z,0.57
2018-08-22T03:17:32.757Z,0.53
2018-08-22T03:20:01.189Z,0.50
2018-08-22T03:22:29.790Z,0.60
2018-08-22T03:24:58.312Z,0.60
2018-08-22T03:27:26.797Z,0.50
2018-08-22T03:29:55.323Z,0.50
2018-08-22T03:32:23.856Z,0.50
2018-08-22T03:34:52.333Z,0.60
2018-08-22T03:37:20.847Z,0.83
2018-08-22T03:39:49.297Z,0.60
2018-08-22T03:42:17.842Z,0.57
2018-08-22T03:44:46.371Z,0.60
2018-08-22T03:47:14.993Z,0.50
2018-08-22T03:49:43.661Z,0.60
2018-08-22T03:52:12.081Z,0.53
2018-08-22T03:54:40.986Z,0.50
2018-08-22T03:57:09.433Z,0.57
2018-08-22T03:59:38.107Z,0.80
2018-08-22T04:02:06.554Z,0.50
2018-08-22T04:04:35.233Z,0.43
2018-08-22T04:07:03.696Z,0.60
2018-08-22T04:09:32.216Z,0.60
2018-08-22T04:12:00.693Z,0.50
2018-08-22T04:14:29.169Z,0.60
2018-08-22T04:16:58.214Z,0.60
2018-08-22T04:19:26.840Z,0.57
2018-08-22T04:21:55.317Z,0.70
2018-08-22T04:24:23.992Z,0.43
2018-08-22T04:26:52.533Z,0.60
2018-08-22T04:29:20.997Z,0.67
2018-08-22T04:31:49.655Z,0.50
2018-08-22T04:34:18.157Z,0.50
2018-08-22T04:36:46.694Z,0.70
2018-08-22T04:39:15.133Z,0.67
2018-08-22T04:41:43.595Z,0.50
2018-08-22T04:44:12.183Z,0.63
2018-08-22T04:46:40.861Z,0.50
2018-08-22T04:49:09.314Z,0.50
2018-08-22T04:51:37.868Z,0.40
2018-08-22T04:54:06.515Z,0.60
2018-08-22T04:56:35.157Z,0.63
2018-08-22T04:59:03.691Z,0.40
2018-08-22T05:01:32.144Z,0.53
2018-08-22T05:04:00.666Z,0.60
2018-08-22T05:06:29.192Z,0.50
2018-08-22T05:08:57.596Z,0.47
2018-08-22T05:11:26.566Z,0.50
2018-08-22T05:13:55.555Z,0.67
2018-08-22T05:16:24.024Z,0.70
2018-08-22T05:18:52.476Z,0.60
2018-08-22T05:21:21.156Z,0.40
2018-08-22T05:23:49.553Z,0.70
2018-08-22T05:26:18.028Z,0.50
2018-08-22T05:28:46.627Z,0.70
2018-08-22T05:31:15.149Z,0.60
2018-08-22T05:33:43.695Z,0.50
2018-08-22T05:36:12.156Z,0.77
2018-08-22T05:38:40.765Z,0.60
2018-08-22T05:41:09.342Z,0.50
2018-08-22T05:43:37.967Z,0.50
2018-08-22T05:46:06.481Z,0.70
2018-08-22T05:48:34.899Z,0.57
2018-08-22T05:51:03.335Z,0.70
2018-08-22T05:53:31.873Z,0.70
2018-08-22T05:56:00.293Z,0.50
2018-08-22T05:58:28.849Z,0.80
2018-08-22T06:00:57.335Z,0.57
2018-08-22T06:03:26.019Z,0.47
2018-08-22T06:05:54.568Z,0.60
2018-08-22T06:08:23.340Z,0.50
2018-08-22T06:10:51.814Z,0.50
2018-08-22T06:13:20.246Z,0.73
2018-08-22T06:15:48.855Z,0.57
2018-08-22T06:18:17.225Z,0.60
2018-08-22T06:20:45.748Z,0.60
2018-08-22T06:23:14.128Z,0.50
2018-08-22T06:25:42.603Z,0.80
2018-08-22T06:28:11.264Z,0.50
2018-08-22T06:30:39.830Z,0.60
2018-08-22T06:33:08.303Z,0.60
2018-08-22T06:35:36.775Z,0.40
2018-08-22T06:38:05.226Z,0.70
2018-08-22T06:40:33.823Z,0.43
2018-08-22T06:43:02.385Z,0.50
2018-08-22T06:45:30.756Z,0.60
2018-08-22T06:47:59.531Z,0.53
2018-08-22T06:50:28.033Z,0.50
2018-08-22T06:52:56.479Z,0.60
2018-08-22T06:55:24.944Z,0.40
2018-08-22T06:57:53.510Z,0.60
2018-08-22T07:00:21.904Z,0.50
2018-08-22T07:02:50.400Z,0.50
2018-08-22T07:05:18.815Z,0.57
2018-08-22T07:07:47.337Z,0.70
2018-08-22T07:10:15.766Z,0.50
2018-08-22T07:12:44.605Z,0.60
2018-08-22T07:15:13.081Z,0.57
2018-08-22T07:17:42.598Z,0.40
2018-08-22T07:20:11.090Z,0.60
2018-08-22T07:22:40.356Z,0.50
2018-08-22T07:25:08.766Z,0.60
2018-08-22T07:27:37.815Z,0.50
2018-08-22T07:30:06.454Z,0.60
2018-08-22T07:32:34.925Z,0.60
2018-08-22T07:35:03.402Z,0.80
2018-08-22T07:37:31.901Z,0.60
2018-08-22T07:40:00.962Z,0.60
2018-08-22T07:42:29.736Z,0.40
2018-08-22T07:44:58.655Z,0.60
2018-08-22T07:47:31.452Z,0.60
2018-08-22T07:50:03.848Z,0.40
2018-08-22T07:52:34.748Z,0.70
2018-08-22T07:55:03.416Z,0.43
2018-08-22T07:57:31.895Z,0.60
2018-08-22T08:00:02.658Z,0.70
2018-08-22T08:02:31.526Z,0.60
2018-08-22T08:05:00.245Z,0.60
2018-08-22T08:07:28.944Z,0.50
2018-08-22T08:09:57.354Z,0.50
2018-08-22T08:12:32.099Z,0.60
2018-08-22T08:15:05.003Z,0.70
2018-08-22T08:17:33.637Z,0.60
2018-08-22T08:20:02.474Z,0.70
2018-08-22T08:22:31.133Z,0.57
2018-08-22T08:24:59.512Z,0.53
2018-08-22T08:27:28.896Z,0.60
2018-08-22T08:29:57.586Z,0.50
2018-08-22T08:32:26.122Z,0.70
2018-08-22T08:34:55.424Z,0.50
2018-08-22T08:37:23.893Z,0.50
2018-08-22T08:39:52.367Z,0.50
2018-08-22T08:42:20.826Z,1.10
2018-08-22T08:44:51.063Z,0.63
2018-08-22T08:47:19.794Z,0.60
2018-08-22T08:49:49.136Z,0.40
2018-08-22T08:52:17.728Z,0.70
2018-08-22T08:54:46.230Z,0.50
2018-08-22T08:57:14.756Z,0.73
2018-08-22T08:59:43.251Z,0.50
2018-08-22T09:02:11.707Z,0.80
2018-08-22T09:04:40.547Z,1.27
2018-08-22T09:07:09.008Z,0.57
2018-08-22T09:09:37.622Z,0.70
2018-08-22T09:12:08.334Z,0.50
2018-08-22T09:14:37.796Z,0.50
2018-08-22T09:17:07.686Z,0.63
2018-08-22T09:19:36.595Z,0.60
2018-08-22T09:22:05.440Z,0.50
2018-08-22T09:24:33.954Z,0.50
2018-08-22T09:27:02.556Z,0.63
2018-08-22T09:29:31.434Z,1.40
2018-08-22T09:32:01.038Z,0.60
2018-08-22T09:34:30.252Z,0.70
2018-08-22T09:37:00.860Z,0.70
2018-08-22T09:39:33.338Z,0.50
2018-08-22T09:42:04.120Z,1.43
2018-08-22T09:44:36.152Z,0.53
2018-08-22T09:47:06.202Z,0.60
2018-08-22T09:49:36.560Z,0.80
2018-08-22T09:52:07.770Z,0.80
2018-08-22T09:54:51.991Z,0.50
2018-08-22T09:57:22.892Z,0.70
2018-08-22T09:59:51.898Z,0.53
2018-08-22T10:02:20.432Z,0.70
2018-08-22T10:04:49.018Z,0.50
2018-08-22T10:07:19.025Z,0.60
2018-08-22T10:09:47.776Z,0.70
2018-08-22T10:12:18.813Z,0.70
2018-08-22T10:14:47.314Z,0.67
2018-08-22T10:17:15.820Z,0.70
2018-08-22T10:19:44.459Z,0.90
2018-08-22T10:22:13.053Z,0.53
2018-08-22T10:24:41.668Z,0.67
2018-08-22T10:27:10.203Z,0.70
2018-08-22T10:29:39.019Z,0.80
2018-08-22T10:32:08.056Z,0.77
2018-08-22T10:34:36.527Z,0.70
2018-08-22T10:37:04.962Z,0.70
2018-08-22T10:39:33.453Z,0.60
2018-08-22T10:42:02.077Z,0.87
2018-08-22T10:44:30.672Z,0.60
2018-08-22T10:46:59.018Z,0.70
2018-08-22T10:49:27.446Z,0.50
2018-08-22T10:51:55.914Z,1.33
2018-08-22T10:54:24.376Z,0.70
2018-08-22T10:56:52.790Z,0.70
2018-08-22T10:59:21.308Z,0.60
2018-08-22T11:01:49.774Z,0.73
2018-08-22T11:04:18.352Z,0.80
2018-08-22T11:06:46.780Z,0.60
2018-08-22T11:09:15.413Z,0.70
2018-08-22T11:11:43.941Z,0.73
2018-08-22T11:14:12.344Z,0.70
2018-08-22T11:16:40.857Z,0.60
2018-08-22T11:19:09.386Z,0.60
2018-08-22T11:21:49.150Z,0.90
2018-08-22T11:24:29.199Z,0.60
2018-08-22T11:27:09.105Z,0.57
2018-08-22T11:29:49.005Z,0.73
2018-08-22T11:32:28.956Z,1.23
2018-08-22T11:34:56.310Z,0.57
2018-08-22T11:37:24.854Z,0.60
2018-08-22T11:39:53.373Z,0.57
2018-08-22T11:42:21.881Z,0.70
2018-08-22T11:44:50.474Z,0.57
2018-08-22T11:47:18.995Z,0.60
2018-08-22T11:49:47.484Z,0.67
2018-08-22T11:52:17.053Z,0.70
2018-08-22T11:54:45.562Z,0.70
2018-08-22T11:57:14.202Z,0.73
2018-08-22T11:59:43.057Z,0.60
2018-08-22T12:02:11.619Z,0.50
2018-08-22T12:04:40.189Z,0.47
2018-08-22T12:07:08.690Z,0.47
2018-08-22T12:09:37.295Z,0.80
2018-08-22T12:12:06.207Z,0.67
2018-08-22T12:14:34.785Z,0.87
2018-08-22T12:17:03.327Z,0.60
2018-08-22T12:19:31.832Z,0.83
2018-08-22T12:22:00.408Z,0.50
2018-08-22T12:24:29.047Z,0.70
2018-08-22T12:26:57.635Z,0.90
2018-08-22T12:29:26.120Z,0.60
2018-08-22T12:31:54.654Z,0.70
2018-08-22T12:34:23.225Z,0.60
2018-08-22T12:36:51.765Z,0.83
2018-08-22T12:39:20.228Z,0.60
2018-08-22T12:41:48.815Z,0.67
2018-08-22T12:44:17.372Z,0.70
2018-08-22T12:46:45.940Z,0.70
2018-08-22T12:49:14.833Z,0.70
2018-08-22T12:51:43.534Z,0.60
2018-08-22T12:54:12.435Z,0.90
2018-08-22T12:56:41.102Z,0.83
2018-08-22T12:59:10.120Z,0.80
2018-08-22T13:01:39.392Z,0.50
2018-08-22T13:04:08.340Z,0.73
2018-08-22T13:06:36.802Z,0.70
2018-08-22T13:09:07.490Z,0.77
2018-08-22T13:11:36.155Z,0.70
2018-08-22T13:14:05.247Z,0.67
2018-08-22T13:16:33.739Z,0.87
2018-08-22T13:19:02.458Z,0.70
2018-08-22T13:21:31.037Z,0.70
2018-08-22T13:23:59.890Z,0.60
2018-08-22T13:26:28.462Z,1.00
2018-08-22T13:28:57.573Z,0.80
2018-08-22T13:31:27.161Z,0.63
2018-08-22T13:33:57.380Z,0.70
2018-08-22T13:36:26.326Z,0.77
2018-08-22T13:38:55.527Z,0.70
2018-08-22T13:41:24.102Z,0.77
2018-08-22T13:43:52.654Z,0.77
2018-08-22T13:46:21.314Z,0.70
2018-08-22T13:48:49.925Z,1.17
2018-08-22T13:51:18.653Z,0.73
2018-08-22T13:53:47.182Z,0.83
2018-08-22T13:56:15.783Z,0.70
2018-08-22T13:58:44.290Z,1.00
2018-08-22T14:01:12.837Z,1.10
2018-08-22T14:03:41.746Z,0.90
2018-08-22T14:06:10.553Z,0.90
2018-08-22T14:08:39.464Z,0.83
2018-08-22T14:11:08.175Z,0.87
2018-08-22T14:13:37.471Z,0.83
2018-08-22T14:16:06.097Z,0.90
2018-08-22T14:18:34.695Z,1.00
2018-08-22T14:21:03.249Z,0.67
2018-08-22T14:23:31.825Z,0.63
2018-08-22T14:26:00.522Z,0.80
2018-08-22T14:28:29.211Z,0.70
2018-08-22T14:30:57.879Z,0.60
2018-08-22T14:33:26.590Z,0.70
2018-08-22T14:35:55.798Z,0.80
2018-08-22T14:38:24.448Z,0.87
2018-08-22T14:40:53.086Z,0.90
2018-08-22T14:43:21.604Z,0.77
2018-08-22T14:45:50.331Z,0.77
2018-08-22T14:48:18.800Z,0.90
2018-08-22T14:50:47.420Z,0.80
2018-08-22T14:53:15.896Z,0.77
2018-08-22T14:55:44.363Z,0.70
2018-08-22T14:58:13.354Z,0.77
2018-08-22T15:00:42.475Z,0.90
2018-08-22T15:03:11.631Z,0.93
2018-08-22T15:05:40.271Z,0.93
2018-08-22T15:08:08.728Z,1.00
2018-08-22T15:10:37.338Z,0.87
2018-08-22T15:13:06.041Z,0.80
2018-08-22T15:15:34.534Z,1.00
2018-08-22T15:18:03.261Z,1.00
2018-08-22T15:20:31.918Z,1.07
2018-08-22T15:23:00.351Z,1.00
2018-08-22T15:25:28.934Z,1.00
2018-08-22T15:27:57.510Z,0.80
2018-08-22T15:30:26.209Z,1.00
2018-08-22T15:32:54.738Z,1.10
2018-08-22T15:35:23.835Z,0.87
2018-08-22T15:37:52.403Z,1.00
2018-08-22T15:40:20.964Z,0.70
2018-08-22T15:42:49.453Z,0.87
2018-08-22T15:45:17.965Z,0.90
2018-08-22T15:47:46.577Z,0.80
2018-08-22T15:50:15.367Z,0.77
2018-08-22T15:52:44.181Z,1.00
2018-08-22T15:55:15.489Z,0.97
2018-08-22T15:58:06.326Z,0.87
2018-08-22T16:00:50.581Z,0.87
2018-08-22T16:03:19.412Z,0.80
2018-08-22T16:05:48.932Z,0.90
2018-08-22T16:08:18.684Z,0.80
2018-08-22T16:10:47.381Z,1.13
2018-08-22T16:13:21.288Z,0.97
2018-08-22T16:15:51.063Z,1.13
2018-08-22T16:18:19.886Z,0.90
2018-08-22T16:20:55.241Z,0.87
2018-08-22T16:23:29.228Z,0.90
2018-08-22T16:25:59.169Z,1.00
2018-08-22T16:28:29.454Z,1.07
2018-08-22T16:30:58.715Z,1.00
2018-08-22T16:33:27.351Z,0.80
2018-08-22T16:35:56.169Z,1.13
2018-08-22T16:38:24.740Z,0.90
2018-08-22T16:40:53.967Z,1.20
2018-08-22T16:43:41.398Z,0.90
2018-08-22T16:46:12.587Z,1.00
2018-08-22T16:48:42.048Z,0.93
2018-08-22T16:51:10.716Z,1.03
2018-08-22T16:53:39.705Z,1.20
2018-08-22T16:56:08.488Z,0.90
2018-08-22T16:58:37.161Z,1.00
2018-08-22T17:01:06.125Z,0.90
2018-08-22T17:03:34.645Z,0.90
2018-08-22T17:06:12.195Z,1.20
2018-08-22T17:08:40.791Z,1.43
2018-08-22T17:11:11.582Z,1.30
2018-08-22T17:13:43.918Z,1.00
2018-08-22T17:16:12.469Z,1.00
2018-08-22T17:18:41.255Z,0.97
2018-08-22T17:21:10.287Z,1.03
2018-08-22T17:23:39.029Z,0.90
2018-08-22T17:26:12.327Z,0.83
2018-08-22T17:28:42.545Z,1.10
2018-08-22T17:31:11.712Z,0.90
2018-08-22T17:33:43.652Z,1.17
2018-08-22T17:36:12.943Z,1.00
2018-08-22T17:38:45.581Z,1.07
2018-08-22T17:41:14.553Z,1.30
2018-08-22T17:43:55.723Z,0.80
2018-08-22T17:46:26.322Z,1.20
2018-08-22T17:48:54.755Z,0.93
2018-08-22T17:51:23.271Z,1.03
2018-08-22T17:53:51.659Z,1.10
2018-08-22T17:56:22.775Z,1.00
2018-08-22T17:58:52.317Z,1.07
2018-08-22T18:01:21.119Z,1.13
2018-08-22T18:03:49.612Z,1.37
2018-08-22T18:06:18.194Z,0.97
2018-08-22T18:08:46.802Z,1.17
2018-08-22T18:11:15.538Z,1.23
2018-08-22T18:13:44.145Z,1.30
2018-08-22T18:16:12.602Z,0.93
2018-08-22T18:18:41.009Z,1.37
2018-08-22T18:21:09.531Z,1.00
2018-08-22T18:23:39.193Z,1.20
2018-08-22T18:26:07.642Z,1.30
2018-08-22T18:28:36.082Z,1.40
2018-08-22T18:31:04.534Z,1.07
2018-08-22T18:33:33.262Z,1.00
2018-08-22T18:36:01.784Z,1.03
2018-08-22T18:38:30.295Z,0.97
2018-08-22T18:41:06.691Z,1.07
2018-08-22T18:43:35.188Z,1.00
2018-08-22T18:46:05.612Z,0.73
2018-08-22T18:48:35.190Z,1.17
2018-08-22T18:51:04.556Z,0.93
2018-08-22T18:53:33.169Z,1.00
2018-08-22T18:56:13.750Z,1.30
2018-08-22T18:58:42.243Z,1.10
2018-08-22T19:01:10.842Z,1.20
2018-08-22T19:03:39.543Z,0.70
2018-08-22T19:06:08.180Z,0.83
2018-08-22T19:08:39.109Z,0.87
2018-08-22T19:11:08.386Z,1.10
2018-08-22T19:13:36.965Z,1.27
2018-08-22T19:16:09.776Z,1.30
2018-08-22T19:18:38.578Z,1.03
2018-08-22T19:21:08.845Z,0.83
2018-08-22T19:23:37.307Z,1.20
2018-08-22T19:26:06.586Z,1.03
2018-08-22T19:29:06.844Z,1.30
2018-08-22T19:31:36.976Z,1.10
2018-08-22T19:34:05.473Z,1.13
2018-08-22T19:36:33.893Z,1.10
2018-08-22T19:39:02.414Z,1.00
2018-08-22T19:41:33.353Z,1.00
2018-08-22T19:44:02.087Z,0.87
2018-08-22T19:46:30.641Z,1.00
2018-08-22T19:49:00.384Z,1.20
2018-08-22T19:51:29.337Z,1.00
2018-08-22T19:54:02.302Z,1.20
2018-08-22T19:56:31.068Z,1.40
2018-08-22T19:58:59.898Z,1.10
2018-08-22T20:01:31.274Z,1.30
2018-08-22T20:03:59.782Z,1.10
2018-08-22T20:06:28.458Z,0.90
2018-08-22T20:08:58.019Z,1.00
2018-08-22T20:11:27.057Z,1.03
2018-08-22T20:13:59.573Z,1.00
2018-08-22T20:16:28.242Z,0.80
2018-08-22T20:19:01.908Z,1.10
2018-08-22T20:21:38.065Z,0.97
2018-08-22T20:24:09.407Z,1.00
2018-08-22T20:26:40.265Z,0.80
2018-08-22T20:29:11.605Z,0.90
2018-08-22T20:31:42.450Z,1.00
2018-08-22T20:34:14.930Z,1.10
2018-08-22T20:36:49.686Z,1.20
2018-08-22T20:39:18.958Z,1.27
2018-08-22T20:41:50.691Z,1.17
2018-08-22T20:44:20.807Z,1.10
2018-08-22T20:46:49.505Z,0.90
2018-08-22T20:49:19.437Z,0.70
2018-08-22T20:51:48.452Z,1.50
2018-08-22T20:54:20.724Z,1.10
2018-08-22T20:56:54.518Z,1.23
2018-08-22T20:59:23.228Z,1.03
2018-08-22T21:02:08.660Z,1.10
2018-08-22T21:04:37.405Z,1.33
2018-08-22T21:07:06.282Z,1.20
2018-08-22T21:09:34.906Z,1.00
2018-08-22T21:12:04.344Z,1.10
2018-08-22T21:14:33.047Z,1.10
2018-08-22T21:17:01.442Z,1.30
2018-08-22T21:19:30.070Z,1.20
2018-08-22T21:21:58.700Z,1.30
2018-08-22T21:24:27.327Z,0.97
2018-08-22T21:26:56.363Z,1.10
2018-08-22T21:29:25.212Z,1.30
2018-08-22T21:31:53.769Z,1.00
2018-08-22T21:34:23.828Z,1.03
2018-08-22T21:36:52.650Z,2.17
2018-08-22T21:39:25.714Z,0.83
2018-08-22T21:41:54.432Z,1.17
2018-08-22T21:44:23.774Z,1.30
2018-08-22T21:46:59.616Z,1.43
2018-08-22T21:49:30.469Z,3.47
2018-08-22T21:52:03.779Z,0.97
2018-08-22T21:54:33.840Z,1.30
2018-08-22T21:57:06.506Z,0.97
2018-08-22T21:59:36.896Z,1.30
2018-08-22T22:02:09.917Z,1.70
2018-08-22T22:04:41.385Z,0.90
2018-08-22T22:07:12.996Z,1.87
2018-08-22T22:09:47.208Z,2.33
2018-08-22T22:12:23.612Z,0.90
2018-08-22T22:14:55.215Z,1.03
2018-08-22T22:17:28.071Z,1.40
2018-08-22T22:20:03.744Z,1.13
2018-08-22T22:22:38.113Z,1.53
2018-08-22T22:25:10.558Z,1.30
2018-08-22T22:27:45.189Z,1.20
2018-08-22T22:30:20.556Z,1.67
2018-08-22T22:32:53.737Z,1.03
2018-08-22T22:35:28.189Z,1.90
2018-08-22T22:38:02.323Z,1.83
2018-08-22T22:40:33.025Z,1.60
2018-08-22T22:43:02.679Z,2.40
2018-08-22T22:45:32.942Z,1.40
2018-08-22T22:48:06.219Z,1.60
2018-08-22T22:50:35.493Z,1.30
2018-08-22T22:53:08.668Z,1.80
2018-08-22T22:55:40.978Z,1.47
2018-08-22T22:58:13.296Z,1.37
2018-08-22T23:00:43.082Z,1.93
2018-08-22T23:03:14.274Z,3.63
2018-08-22T23:05:50.582Z,1.50
2018-08-22T23:08:24.953Z,1.20
2018-08-22T23:10:54.129Z,1.93
2018-08-22T23:13:24.836Z,1.80
2018-08-22T23:15:55.009Z,1.50
2018-08-22T23:18:24.307Z,2.17
2018-08-22T23:21:00.078Z,1.47
2018-08-22T23:23:37.616Z,1.17
2018-08-22T23:26:18.743Z,2.20
2018-08-22T23:28:48.548Z,1.30
2018-08-22T23:31:19.492Z,1.40
2018-08-22T23:33:47.991Z,1.77
2018-08-22T23:36:16.436Z,1.53
2018-08-22T23:38:45.330Z,1.30
2018-08-22T23:41:14.922Z,1.17
2018-08-22T23:43:48.910Z,1.67
2018-08-22T23:46:18.532Z,1.13
2018-08-22T23:48:57.147Z,1.10
2018-08-22T23:51:27.209Z,1.30
2018-08-22T23:53:58.575Z,1.67
2018-08-22T23:56:29.169Z,1.33
2018-08-22T23:58:58.381Z,1.47
